sensor_id;sensor_type;location;lat;lon;timestamp;pressure;altitude;pressure_sealevel;temperature;humidity
11339;BME280;5724;42.684;23.252;2024-03-08T00:00:08;94380.94;;;3.90;100.00
11339;BME280;5724;42.684;23.252;2024-03-08T00:02:36;94383.50;;;4.03;100.00
11339;BME280;5724;42.684;23.252;2024-03-08T00:05:04;94381.78;;;4.16;100.00
11339;BME280;5724;42.684;23.252;2024-03-08T00:07:30;94374.44;;;4.17;100.00
11339;BME280;5724;42.684;23.252;2024-03-08T00:09:55;94378.91;;;4.30;100.00
11339;BME280;5724;42.684;23.252;2024-03-08T00:12:21;94378.75;;;4.35;100.00
11339;BME280;5724;42.684;23.252;2024-03-08T00:14:46;94375.72;;;4.45;100.00
11339;BME280;5724;42.684;23.252;2024-03-08T00:17:12;94376.53;;;4.46;100.00
11339;BME280;5724;42.684;23.252;2024-03-08T00:19:37;94368.72;;;4.44;100.00
11339;BME280;5724;42.684;23.252;2024-03-08T00:22:04;94375.22;;;4.52;100.00
11339;BME280;5724;42.684;23.252;2024-03-08T00:24:29;94362.03;;;4.50;100.00
11339;BME280;5724;42.684;23.252;2024-03-08T00:26:56;94384.31;;;4.73;100.00
11339;BME280;5724;42.684;23.252;2024-03-08T00:29:21;94373.47;;;4.73;100.00
11339;BME280;5724;42.684;23.252;2024-03-08T00:31:47;94371.84;;;4.72;100.00
11339;BME280;5724;42.684;23.252;2024-03-08T00:34:13;94373.75;;;4.80;100.00
11339;BME280;5724;42.684;23.252;2024-03-08T00:36:38;94376.78;;;4.87;100.00
11339;BME280;5724;42.684;23.252;2024-03-08T00:39:04;94364.50;;;4.90;100.00
11339;BME280;5724;42.684;23.252;2024-03-08T00:41:32;94374.06;;;4.96;100.00
11339;BME280;5724;42.684;23.252;2024-03-08T00:43:58;94374.53;;;4.89;100.00
11339;BME280;5724;42.684;23.252;2024-03-08T00:46:23;94366.25;;;5.03;100.00
11339;BME280;5724;42.684;23.252;2024-03-08T00:48:49;94368.66;;;4.96;100.00
11339;BME280;5724;42.684;23.252;2024-03-08T00:51:14;94362.13;;;4.88;100.00
11339;BME280;5724;42.684;23.252;2024-03-08T00:53:43;94367.88;;;4.78;100.00
11339;BME280;5724;42.684;23.252;2024-03-08T00:56:08;94364.06;;;4.71;100.00
11339;BME280;5724;42.684;23.252;2024-03-08T00:58:37;94358.50;;;4.67;100.00
11339;BME280;5724;42.684;23.252;2024-03-08T01:01:03;94352.97;;;4.64;100.00
11339;BME280;5724;42.684;23.252;2024-03-08T01:03:30;94347.25;;;4.30;100.00
11339;BME280;5724;42.684;23.252;2024-03-08T01:05:57;94347.09;;;4.27;100.00
11339;BME280;5724;42.684;23.252;2024-03-08T01:08:22;94345.97;;;4.19;100.00
11339;BME280;5724;42.684;23.252;2024-03-08T01:10:49;94347.88;;;4.27;100.00
11339;BME280;5724;42.684;23.252;2024-03-08T01:13:16;94342.31;;;4.41;100.00
11339;BME280;5724;42.684;23.252;2024-03-08T01:15:41;94344.06;;;4.46;100.00
11339;BME280;5724;42.684;23.252;2024-03-08T01:18:07;94351.19;;;4.50;100.00
11339;BME280;5724;42.684;23.252;2024-03-08T01:20:33;94343.88;;;4.42;100.00
11339;BME280;5724;42.684;23.252;2024-03-08T01:22:58;94343.09;;;4.50;100.00
11339;BME280;5724;42.684;23.252;2024-03-08T01:25:23;94339.91;;;4.57;100.00
11339;BME280;5724;42.684;23.252;2024-03-08T01:27:49;94336.88;;;4.67;100.00
11339;BME280;5724;42.684;23.252;2024-03-08T01:30:15;94341.63;;;4.62;100.00
11339;BME280;5724;42.684;23.252;2024-03-08T01:32:43;94334.63;;;4.69;100.00
11339;BME280;5724;42.684;23.252;2024-03-08T01:35:09;94326.06;;;4.58;100.00
11339;BME280;5724;42.684;23.252;2024-03-08T01:37:35;94331.00;;;4.39;100.00
11339;BME280;5724;42.684;23.252;2024-03-08T01:40:01;94332.59;;;4.40;100.00
11339;BME280;5724;42.684;23.252;2024-03-08T01:42:28;94332.78;;;4.35;100.00
11339;BME280;5724;42.684;23.252;2024-03-08T01:44:54;94301.13;;;3.92;100.00
11339;BME280;5724;42.684;23.252;2024-03-08T01:47:21;94325.94;;;4.03;100.00
11339;BME280;5724;42.684;23.252;2024-03-08T01:49:50;94327.69;;;4.25;100.00
11339;BME280;5724;42.684;23.252;2024-03-08T01:52:17;94319.09;;;4.23;100.00
11339;BME280;5724;42.684;23.252;2024-03-08T01:54:47;94320.84;;;4.45;100.00
11339;BME280;5724;42.684;23.252;2024-03-08T01:57:13;94333.84;;;4.51;100.00
11339;BME280;5724;42.684;23.252;2024-03-08T01:59:40;94326.38;;;4.48;100.00
11339;BME280;5724;42.684;23.252;2024-03-08T02:02:08;94324.00;;;4.47;100.00
11339;BME280;5724;42.684;23.252;2024-03-08T02:04:36;94319.22;;;4.52;100.00
11339;BME280;5724;42.684;23.252;2024-03-08T02:07:03;94319.66;;;4.63;100.00
11339;BME280;5724;42.684;23.252;2024-03-08T02:09:30;94322.88;;;4.48;100.00
11339;BME280;5724;42.684;23.252;2024-03-08T02:11:57;94322.41;;;4.46;100.00
11339;BME280;5724;42.684;23.252;2024-03-08T02:14:22;94321.16;;;4.35;100.00
11339;BME280;5724;42.684;23.252;2024-03-08T02:16:49;94325.59;;;4.05;100.00
11339;BME280;5724;42.684;23.252;2024-03-08T02:19:16;94325.78;;;3.99;100.00
11339;BME280;5724;42.684;23.252;2024-03-08T02:21:42;94313.84;;;4.18;100.00
11339;BME280;5724;42.684;23.252;2024-03-08T02:24:07;94324.50;;;4.23;100.00
11339;BME280;5724;42.684;23.252;2024-03-08T02:26:32;94308.75;;;3.90;100.00
11339;BME280;5724;42.684;23.252;2024-03-08T02:28:58;94331.19;;;4.25;100.00
11339;BME280;5724;42.684;23.252;2024-03-08T02:31:23;94331.34;;;4.03;100.00
11339;BME280;5724;42.684;23.252;2024-03-08T02:33:49;94326.09;;;3.89;100.00
11339;BME280;5724;42.684;23.252;2024-03-08T02:36:14;94329.44;;;4.12;100.00
11339;BME280;5724;42.684;23.252;2024-03-08T02:38:41;94329.28;;;4.17;100.00
11339;BME280;5724;42.684;23.252;2024-03-08T02:41:06;94331.94;;;4.43;100.00
11339;BME280;5724;42.684;23.252;2024-03-08T02:43:34;94330.03;;;4.52;100.00
11339;BME280;5724;42.684;23.252;2024-03-08T02:45:59;94333.69;;;4.56;100.00
11339;BME280;5724;42.684;23.252;2024-03-08T02:48:25;94327.31;;;4.52;100.00
11339;BME280;5724;42.684;23.252;2024-03-08T02:50:50;94324.81;;;4.47;100.00
11339;BME280;5724;42.684;23.252;2024-03-08T02:53:16;94331.94;;;4.60;100.00
11339;BME280;5724;42.684;23.252;2024-03-08T02:55:44;94330.34;;;4.68;100.00
11339;BME280;5724;42.684;23.252;2024-03-08T02:58:09;94309.97;;;4.53;100.00
11339;BME280;5724;42.684;23.252;2024-03-08T03:00:36;94320.00;;;4.53;100.00
11339;BME280;5724;42.684;23.252;2024-03-08T03:03:02;94329.22;;;4.60;100.00
11339;BME280;5724;42.684;23.252;2024-03-08T03:05:29;94334.81;;;4.55;100.00
11339;BME280;5724;42.684;23.252;2024-03-08T03:07:55;94329.09;;;4.48;100.00
11339;BME280;5724;42.684;23.252;2024-03-08T03:10:20;94330.53;;;4.54;100.00
11339;BME280;5724;42.684;23.252;2024-03-08T03:12:47;94337.00;;;4.62;100.00
11339;BME280;5724;42.684;23.252;2024-03-08T03:15:17;94338.13;;;4.61;100.00
11339;BME280;5724;42.684;23.252;2024-03-08T03:17:47;94337.84;;;4.54;100.00
11339;BME280;5724;42.684;23.252;2024-03-08T03:20:13;94336.56;;;4.51;100.00
11339;BME280;5724;42.684;23.252;2024-03-08T03:22:40;94344.84;;;4.55;100.00
11339;BME280;5724;42.684;23.252;2024-03-08T03:25:09;94336.56;;;4.51;100.00
11339;BME280;5724;42.684;23.252;2024-03-08T03:27:35;94344.53;;;4.56;100.00
11339;BME280;5724;42.684;23.252;2024-03-08T03:30:03;94347.38;;;4.51;100.00
11339;BME280;5724;42.684;23.252;2024-03-08T03:32:47;94356.94;;;4.57;100.00
11339;BME280;5724;42.684;23.252;2024-03-08T03:35:13;94356.59;;;4.68;100.00
11339;BME280;5724;42.684;23.252;2024-03-08T03:37:40;94356.94;;;4.57;100.00
11339;BME280;5724;42.684;23.252;2024-03-08T03:40:08;94363.13;;;4.67;100.00
11339;BME280;5724;42.684;23.252;2024-03-08T03:42:34;94367.28;;;4.55;100.00
11339;BME280;5724;42.684;23.252;2024-03-08T03:44:59;94367.75;;;4.57;100.00
11339;BME280;5724;42.684;23.252;2024-03-08T03:47:25;94378.09;;;4.64;100.00
11339;BME280;5724;42.684;23.252;2024-03-08T03:49:52;94367.91;;;4.52;100.00
11339;BME280;5724;42.684;23.252;2024-03-08T03:52:19;94366.03;;;4.27;100.00
11339;BME280;5724;42.684;23.252;2024-03-08T03:54:45;94358.53;;;4.24;100.00
11339;BME280;5724;42.684;23.252;2024-03-08T03:57:10;94372.38;;;3.96;100.00
11339;BME280;5724;42.684;23.252;2024-03-08T03:59:37;94374.75;;;4.07;100.00
11339;BME280;5724;42.684;23.252;2024-03-08T04:02:03;94369.94;;;3.78;100.00
11339;BME280;5724;42.684;23.252;2024-03-08T04:04:29;94367.38;;;3.64;100.00
11339;BME280;5724;42.684;23.252;2024-03-08T04:06:54;94374.63;;;3.46;100.00
11339;BME280;5724;42.684;23.252;2024-03-08T04:09:20;94380.34;;;3.44;100.00
11339;BME280;5724;42.684;23.252;2024-03-08T04:11:48;94390.78;;;3.37;100.00
11339;BME280;5724;42.684;23.252;2024-03-08T04:14:14;94393.78;;;3.67;100.00
11339;BME280;5724;42.684;23.252;2024-03-08T04:16:39;94392.38;;;3.78;100.00
11339;BME280;5724;42.684;23.252;2024-03-08T04:19:05;94393.78;;;3.84;100.00
11339;BME280;5724;42.684;23.252;2024-03-08T04:21:30;94399.38;;;4.05;100.00
11339;BME280;5724;42.684;23.252;2024-03-08T04:23:56;94400.03;;;4.02;100.00
11339;BME280;5724;42.684;23.252;2024-03-08T04:26:22;94402.09;;;4.05;99.16
11339;BME280;5724;42.684;23.252;2024-03-08T04:28:47;94405.59;;;4.14;99.21
11339;BME280;5724;42.684;23.252;2024-03-08T04:31:13;94406.91;;;4.17;99.72
11339;BME280;5724;42.684;23.252;2024-03-08T04:33:38;94410.81;;;3.85;98.99
11339;BME280;5724;42.684;23.252;2024-03-08T04:36:04;94412.91;;;3.96;98.98
11339;BME280;5724;42.684;23.252;2024-03-08T04:38:30;94417.38;;;4.01;99.57
11339;BME280;5724;42.684;23.252;2024-03-08T04:40:57;94414.00;;;3.95;100.00
11339;BME280;5724;42.684;23.252;2024-03-08T04:43:23;94427.22;;;3.97;100.00
11339;BME280;5724;42.684;23.252;2024-03-08T04:45:52;94418.63;;;3.95;100.00
11339;BME280;5724;42.684;23.252;2024-03-08T04:48:18;94420.22;;;3.87;100.00
11339;BME280;5724;42.684;23.252;2024-03-08T04:50:44;94421.81;;;3.97;100.00
11339;BME280;5724;42.684;23.252;2024-03-08T04:53:10;94413.81;;;3.83;100.00
11339;BME280;5724;42.684;23.252;2024-03-08T04:55:36;94422.94;;;3.96;100.00
11339;BME280;5724;42.684;23.252;2024-03-08T04:58:03;94421.00;;;3.88;100.00
11339;BME280;5724;42.684;23.252;2024-03-08T05:00:31;94420.00;;;3.75;100.00
11339;BME280;5724;42.684;23.252;2024-03-08T05:02:58;94425.09;;;3.68;100.00
11339;BME280;5724;42.684;23.252;2024-03-08T05:05:23;94426.25;;;3.44;100.00
11339;BME280;5724;42.684;23.252;2024-03-08T05:07:50;94424.41;;;3.62;100.00
11339;BME280;5724;42.684;23.252;2024-03-08T05:10:16;94426.31;;;3.62;100.00
11339;BME280;5724;42.684;23.252;2024-03-08T05:12:43;94437.00;;;3.67;100.00
11339;BME280;5724;42.684;23.252;2024-03-08T05:15:09;94422.78;;;3.53;100.00
11339;BME280;5724;42.684;23.252;2024-03-08T05:17:36;94432.34;;;3.59;100.00
11339;BME280;5724;42.684;23.252;2024-03-08T05:20:02;94400.63;;;3.33;100.00
11339;BME280;5724;42.684;23.252;2024-03-08T05:22:27;94434.06;;;3.55;100.00
11339;BME280;5724;42.684;23.252;2024-03-08T05:24:53;94446.22;;;3.35;100.00
11339;BME280;5724;42.684;23.252;2024-03-08T05:27:18;94440.28;;;3.24;100.00
11339;BME280;5724;42.684;23.252;2024-03-08T05:29:44;94456.66;;;3.19;100.00
11339;BME280;5724;42.684;23.252;2024-03-08T05:32:10;94459.09;;;3.07;100.00
11339;BME280;5724;42.684;23.252;2024-03-08T05:34:35;94404.09;;;2.94;100.00
11339;BME280;5724;42.684;23.252;2024-03-08T05:37:03;94457.34;;;3.33;100.00
11339;BME280;5724;42.684;23.252;2024-03-08T05:39:28;94468.97;;;3.42;100.00
11339;BME280;5724;42.684;23.252;2024-03-08T05:41:54;94467.75;;;3.49;100.00
11339;BME280;5724;42.684;23.252;2024-03-08T05:44:20;94472.25;;;3.62;100.00
11339;BME280;5724;42.684;23.252;2024-03-08T05:46:46;94474.81;;;3.67;100.00
11339;BME280;5724;42.684;23.252;2024-03-08T05:49:12;94469.34;;;3.50;100.00
11339;BME280;5724;42.684;23.252;2024-03-08T05:51:39;94485.28;;;3.60;100.00
11339;BME280;5724;42.684;23.252;2024-03-08T05:54:07;94482.38;;;3.56;100.00
11339;BME280;5724;42.684;23.252;2024-03-08T05:56:36;94471.69;;;3.42;100.00
11339;BME280;5724;42.684;23.252;2024-03-08T05:59:03;94462.16;;;3.45;100.00
11339;BME280;5724;42.684;23.252;2024-03-08T06:01:29;94495.13;;;3.64;100.00
11339;BME280;5724;42.684;23.252;2024-03-08T06:03:56;94490.06;;;3.63;100.00
11339;BME280;5724;42.684;23.252;2024-03-08T06:06:25;94491.44;;;3.52;100.00
11339;BME280;5724;42.684;23.252;2024-03-08T06:08:51;94493.97;;;3.48;100.00
11339;BME280;5724;42.684;23.252;2024-03-08T06:11:19;94496.47;;;3.44;100.00
11339;BME280;5724;42.684;23.252;2024-03-08T06:13:46;94508.00;;;3.59;100.00
11339;BME280;5724;42.684;23.252;2024-03-08T06:16:11;94510.47;;;3.47;100.00
11339;BME280;5724;42.684;23.252;2024-03-08T06:18:37;94509.13;;;3.58;100.00
11339;BME280;5724;42.684;23.252;2024-03-08T06:21:05;94507.25;;;3.67;100.00
11339;BME280;5724;42.684;23.252;2024-03-08T06:23:35;94513.63;;;3.71;100.00
11339;BME280;5724;42.684;23.252;2024-03-08T06:26:04;94502.28;;;3.60;100.00
11339;BME280;5724;42.684;23.252;2024-03-08T06:28:30;94513.13;;;3.69;100.00
11339;BME280;5724;42.684;23.252;2024-03-08T06:30:55;94508.22;;;3.71;100.00
11339;BME280;5724;42.684;23.252;2024-03-08T06:33:21;94509.53;;;3.82;100.00
11339;BME280;5724;42.684;23.252;2024-03-08T06:35:46;94520.06;;;3.92;100.00
11339;BME280;5724;42.684;23.252;2024-03-08T06:38:12;94512.59;;;3.89;100.00
11339;BME280;5724;42.684;23.252;2024-03-08T06:40:38;94512.09;;;3.87;100.00
11339;BME280;5724;42.684;23.252;2024-03-08T06:43:03;94516.72;;;3.87;100.00
11339;BME280;5724;42.684;23.252;2024-03-08T06:45:32;94508.09;;;3.85;100.00
11339;BME280;5724;42.684;23.252;2024-03-08T06:47:58;94514.56;;;3.75;100.00
11339;BME280;5724;42.684;23.252;2024-03-08T06:50:24;94521.28;;;3.78;100.00
11339;BME280;5724;42.684;23.252;2024-03-08T06:52:49;94522.97;;;4.05;100.00
11339;BME280;5724;42.684;23.252;2024-03-08T06:55:19;94527.13;;;4.11;100.00
11339;BME280;5724;42.684;23.252;2024-03-08T06:57:45;94533.59;;;4.01;100.00
11339;BME280;5724;42.684;23.252;2024-03-08T07:00:11;94529.00;;;4.01;100.00
11339;BME280;5724;42.684;23.252;2024-03-08T07:02:40;94537.47;;;4.09;100.00
11339;BME280;5724;42.684;23.252;2024-03-08T07:05:06;94532.19;;;4.03;100.00
11339;BME280;5724;42.684;23.252;2024-03-08T07:07:36;94537.47;;;4.09;100.00
11339;BME280;5724;42.684;23.252;2024-03-08T07:10:02;94520.56;;;4.03;100.00
11339;BME280;5724;42.684;23.252;2024-03-08T07:12:28;94454.44;;;3.61;100.00
11339;BME280;5724;42.684;23.252;2024-03-08T07:14:54;94538.00;;;4.28;100.00
11339;BME280;5724;42.684;23.252;2024-03-08T07:17:19;94536.28;;;4.41;100.00
11339;BME280;5724;42.684;23.252;2024-03-08T07:19:45;94537.75;;;4.55;100.00
11339;BME280;5724;42.684;23.252;2024-03-08T07:22:10;94548.56;;;4.73;99.62
11339;BME280;5724;42.684;23.252;2024-03-08T07:24:36;94549.25;;;4.87;99.20
11339;BME280;5724;42.684;23.252;2024-03-08T07:27:04;94551.81;;;4.83;97.50
11339;BME280;5724;42.684;23.252;2024-03-08T07:29:30;94551.16;;;4.95;98.10
11339;BME280;5724;42.684;23.252;2024-03-08T07:31:56;94554.19;;;5.02;97.87
11339;BME280;5724;42.684;23.252;2024-03-08T07:34:36;94554.81;;;5.08;97.38
11339;BME280;5724;42.684;23.252;2024-03-08T07:37:02;94552.59;;;5.10;96.73
11339;BME280;5724;42.684;23.252;2024-03-08T07:39:29;94556.09;;;5.02;97.58
11339;BME280;5724;42.684;23.252;2024-03-08T07:41:54;94551.63;;;4.97;98.05
11339;BME280;5724;42.684;23.252;2024-03-08T07:44:20;94558.50;;;4.95;98.81
11339;BME280;5724;42.684;23.252;2024-03-08T07:46:45;94553.41;;;4.93;99.41
11339;BME280;5724;42.684;23.252;2024-03-08T07:49:11;94555.94;;;4.89;100.00
11339;BME280;5724;42.684;23.252;2024-03-08T07:51:38;94547.13;;;4.58;99.66
11339;BME280;5724;42.684;23.252;2024-03-08T07:54:04;94548.50;;;4.29;100.00
11339;BME280;5724;42.684;23.252;2024-03-08T07:56:30;94546.59;;;4.30;100.00
11339;BME280;5724;42.684;23.252;2024-03-08T07:58:56;94551.34;;;4.24;100.00
11339;BME280;5724;42.684;23.252;2024-03-08T08:01:21;94555.19;;;4.32;100.00
11339;BME280;5724;42.684;23.252;2024-03-08T08:03:47;94550.75;;;4.36;100.00
11339;BME280;5724;42.684;23.252;2024-03-08T08:06:16;94547.75;;;4.46;100.00
11339;BME280;5724;42.684;23.252;2024-03-08T08:08:42;94548.41;;;4.60;100.00
11339;BME280;5724;42.684;23.252;2024-03-08T08:11:08;94547.16;;;4.75;100.00
11339;BME280;5724;42.684;23.252;2024-03-08T08:13:34;94543.34;;;4.85;100.00
11339;BME280;5724;42.684;23.252;2024-03-08T08:16:02;94553.72;;;5.09;99.87
11339;BME280;5724;42.684;23.252;2024-03-08T08:18:28;94547.97;;;5.19;98.41
11339;BME280;5724;42.684;23.252;2024-03-08T08:20:55;94547.34;;;5.31;96.75
11339;BME280;5724;42.684;23.252;2024-03-08T08:23:20;94551.94;;;5.39;96.20
11339;BME280;5724;42.684;23.252;2024-03-08T08:25:47;94554.97;;;5.46;95.66
11339;BME280;5724;42.684;23.252;2024-03-08T08:28:16;94538.22;;;5.44;96.47
11339;BME280;5724;42.684;23.252;2024-03-08T08:30:46;94557.75;;;5.84;95.71
11339;BME280;5724;42.684;23.252;2024-03-08T08:33:12;94563.81;;;5.98;94.74
11339;BME280;5724;42.684;23.252;2024-03-08T08:35:38;94561.38;;;6.06;93.19
11339;BME280;5724;42.684;23.252;2024-03-08T08:38:04;94550.97;;;5.61;91.85
11339;BME280;5724;42.684;23.252;2024-03-08T08:40:30;94553.34;;;5.54;92.27
11339;BME280;5724;42.684;23.252;2024-03-08T08:42:58;94558.25;;;5.69;92.07
11339;BME280;5724;42.684;23.252;2024-03-08T08:45:25;94553.47;;;5.92;92.88
11339;BME280;5724;42.684;23.252;2024-03-08T08:47:51;94543.94;;;6.15;93.49
11339;BME280;5724;42.684;23.252;2024-03-08T08:50:17;94545.63;;;6.37;91.42
11339;BME280;5724;42.684;23.252;2024-03-08T08:52:48;94550.69;;;6.47;89.32
11339;BME280;5724;42.684;23.252;2024-03-08T08:55:14;94551.34;;;6.65;89.76
11339;BME280;5724;42.684;23.252;2024-03-08T08:57:42;94558.88;;;6.89;90.14
11339;BME280;5724;42.684;23.252;2024-03-08T09:00:08;94557.03;;;7.02;88.67
11339;BME280;5724;42.684;23.252;2024-03-08T09:02:35;94548.09;;;7.01;87.85
11339;BME280;5724;42.684;23.252;2024-03-08T09:05:01;94558.03;;;7.18;88.40
11339;BME280;5724;42.684;23.252;2024-03-08T09:07:27;94552.50;;;7.47;85.23
11339;BME280;5724;42.684;23.252;2024-03-08T09:09:53;94555.84;;;7.32;83.82
11339;BME280;5724;42.684;23.252;2024-03-08T09:12:24;94543.00;;;7.00;82.78
11339;BME280;5724;42.684;23.252;2024-03-08T09:14:49;94543.97;;;7.37;82.19
11339;BME280;5724;42.684;23.252;2024-03-08T09:17:15;94537.88;;;7.19;83.22
11339;BME280;5724;42.684;23.252;2024-03-08T09:19:46;94539.09;;;7.09;82.87
11339;BME280;5724;42.684;23.252;2024-03-08T09:22:13;94549.38;;;7.25;81.87
11339;BME280;5724;42.684;23.252;2024-03-08T09:24:38;94544.63;;;7.55;80.92
11339;BME280;5724;42.684;23.252;2024-03-08T09:27:04;94529.50;;;7.78;80.09
11339;BME280;5724;42.684;23.252;2024-03-08T09:29:30;94547.84;;;7.81;78.68
11339;BME280;5724;42.684;23.252;2024-03-08T09:31:57;94544.31;;;8.01;78.08
11339;BME280;5724;42.684;23.252;2024-03-08T09:34:23;94546.84;;;8.31;74.70
11339;BME280;5724;42.684;23.252;2024-03-08T09:36:49;94540.97;;;8.41;74.48
11339;BME280;5724;42.684;23.252;2024-03-08T09:39:16;94535.63;;;8.45;72.51
11339;BME280;5724;42.684;23.252;2024-03-08T09:41:45;94543.25;;;8.51;71.62
11339;BME280;5724;42.684;23.252;2024-03-08T09:44:14;94548.00;;;8.54;72.85
11339;BME280;5724;42.684;23.252;2024-03-08T09:46:39;94522.88;;;8.24;74.33
11339;BME280;5724;42.684;23.252;2024-03-08T09:49:06;94544.91;;;8.31;71.36
11339;BME280;5724;42.684;23.252;2024-03-08T09:51:33;94549.13;;;8.53;69.98
11339;BME280;5724;42.684;23.252;2024-03-08T09:54:01;94549.59;;;8.55;69.56
11339;BME280;5724;42.684;23.252;2024-03-08T09:56:32;94547.56;;;8.52;70.12
11339;BME280;5724;42.684;23.252;2024-03-08T09:59:01;94536.41;;;8.82;67.43
11339;BME280;5724;42.684;23.252;2024-03-08T10:01:45;94539.81;;;8.67;66.60
11339;BME280;5724;42.684;23.252;2024-03-08T10:04:11;94544.72;;;8.61;67.12
11339;BME280;5724;42.684;23.252;2024-03-08T10:06:37;94546.06;;;8.67;66.98
11339;BME280;5724;42.684;23.252;2024-03-08T10:09:02;94537.22;;;8.70;67.58
11339;BME280;5724;42.684;23.252;2024-03-08T10:11:30;94540.63;;;8.43;67.76
11339;BME280;5724;42.684;23.252;2024-03-08T10:13:57;94535.06;;;8.51;68.32
11339;BME280;5724;42.684;23.252;2024-03-08T10:16:23;94535.63;;;8.45;67.66
11339;BME280;5724;42.684;23.252;2024-03-08T10:18:49;94537.75;;;8.27;67.30
11339;BME280;5724;42.684;23.252;2024-03-08T10:21:15;94535.38;;;8.25;68.81
11339;BME280;5724;42.684;23.252;2024-03-08T10:23:42;94528.72;;;7.90;70.80
11339;BME280;5724;42.684;23.252;2024-03-08T10:26:17;94543.91;;;7.04;71.86
11339;BME280;5724;42.684;23.252;2024-03-08T10:28:49;94543.50;;;6.72;72.80
11339;BME280;5724;42.684;23.252;2024-03-08T10:31:19;94540.84;;;6.34;75.73
11339;BME280;5724;42.684;23.252;2024-03-08T10:33:45;94531.06;;;6.03;77.55
11339;BME280;5724;42.684;23.252;2024-03-08T10:36:15;94532.56;;;6.30;76.10
11339;BME280;5724;42.684;23.252;2024-03-08T10:38:42;94532.56;;;6.60;75.43
11339;BME280;5724;42.684;23.252;2024-03-08T10:41:09;94520.81;;;6.98;75.53
11339;BME280;5724;42.684;23.252;2024-03-08T10:44:02;94530.66;;;7.23;73.73
11339;BME280;5724;42.684;23.252;2024-03-08T10:49:31;94519.03;;;7.68;70.55
11339;BME280;5724;42.684;23.252;2024-03-08T10:52:02;94520.25;;;7.91;70.49
11339;BME280;5724;42.684;23.252;2024-03-08T10:54:29;94517.09;;;8.26;69.02
11339;BME280;5724;42.684;23.252;2024-03-08T10:56:57;94499.19;;;8.13;67.15
11339;BME280;5724;42.684;23.252;2024-03-08T10:59:24;94522.59;;;8.63;66.36
11339;BME280;5724;42.684;23.252;2024-03-08T11:01:52;94502.81;;;8.04;67.10
11339;BME280;5724;42.684;23.252;2024-03-08T11:04:18;94512.59;;;8.30;66.73
11339;BME280;5724;42.684;23.252;2024-03-08T11:06:50;94498.84;;;8.02;65.37
11339;BME280;5724;42.684;23.252;2024-03-08T11:09:32;94494.53;;;8.01;66.99
11339;BME280;5724;42.684;23.252;2024-03-08T11:12:26;94496.91;;;8.27;66.67
11339;BME280;5724;42.684;23.252;2024-03-08T11:14:57;94489.66;;;8.80;65.97
11339;BME280;5724;42.684;23.252;2024-03-08T11:19:56;94490.19;;;8.85;63.71
11339;BME280;5724;42.684;23.252;2024-03-08T11:22:28;94496.13;;;9.15;63.17
11339;BME280;5724;42.684;23.252;2024-03-08T11:25:05;94491.31;;;9.25;61.25
11339;BME280;5724;42.684;23.252;2024-03-08T11:27:36;94495.13;;;9.36;61.14
11339;BME280;5724;42.684;23.252;2024-03-08T11:30:04;94489.59;;;9.60;61.92
11339;BME280;5724;42.684;23.252;2024-03-08T11:32:50;94484.72;;;10.13;60.32
11339;BME280;5724;42.684;23.252;2024-03-08T11:35:21;94473.81;;;10.45;59.54
11339;BME280;5724;42.684;23.252;2024-03-08T11:37:48;94482.03;;;10.29;58.98
11339;BME280;5724;42.684;23.252;2024-03-08T11:40:15;94476.97;;;10.47;59.29
11339;BME280;5724;42.684;23.252;2024-03-08T11:42:48;94477.16;;;10.22;60.02
11339;BME280;5724;42.684;23.252;2024-03-08T11:45:15;94474.94;;;9.37;60.94
11339;BME280;5724;42.684;23.252;2024-03-08T11:47:44;94462.84;;;8.82;63.80
11339;BME280;5724;42.684;23.252;2024-03-08T11:50:13;94461.75;;;8.58;64.19
11339;BME280;5724;42.684;23.252;2024-03-08T11:52:38;94461.41;;;7.74;65.95
11339;BME280;5724;42.684;23.252;2024-03-08T11:55:05;94468.94;;;7.24;67.12
11339;BME280;5724;42.684;23.252;2024-03-08T11:57:31;94467.13;;;7.15;66.85
11339;BME280;5724;42.684;23.252;2024-03-08T11:59:58;94463.31;;;6.96;67.79
11339;BME280;5724;42.684;23.252;2024-03-08T12:02:25;94459.56;;;7.66;66.76
11339;BME280;5724;42.684;23.252;2024-03-08T12:04:58;94456.31;;;8.10;65.31
11339;BME280;5724;42.684;23.252;2024-03-08T12:07:25;94457.38;;;8.42;64.00
11339;BME280;5724;42.684;23.252;2024-03-08T12:12:52;94465.66;;;9.26;63.30
11339;BME280;5724;42.684;23.252;2024-03-08T12:15:19;94457.66;;;9.61;61.77
11339;BME280;5724;42.684;23.252;2024-03-08T12:17:48;94458.63;;;9.84;59.86
11339;BME280;5724;42.684;23.252;2024-03-08T12:20:19;94457.50;;;10.01;58.35
11339;BME280;5724;42.684;23.252;2024-03-08T12:22:50;94456.28;;;10.14;59.42
11339;BME280;5724;42.684;23.252;2024-03-08T12:25:19;94459.88;;;10.18;58.67
11339;BME280;5724;42.684;23.252;2024-03-08T12:27:46;94448.97;;;10.18;59.57
11339;BME280;5724;42.684;23.252;2024-03-08T12:32:51;94454.78;;;10.17;58.07
11339;BME280;5724;42.684;23.252;2024-03-08T12:35:19;94446.53;;;9.54;58.74
11339;BME280;5724;42.684;23.252;2024-03-08T12:37:48;94443.31;;;9.80;60.03
11339;BME280;5724;42.684;23.252;2024-03-08T12:40:14;94438.94;;;10.22;58.45
11339;BME280;5724;42.684;23.252;2024-03-08T12:42:43;94441.31;;;10.08;57.01
11339;BME280;5724;42.684;23.252;2024-03-08T12:45:13;94442.00;;;9.02;59.84
11339;BME280;5724;42.684;23.252;2024-03-08T12:47:39;94433.25;;;9.08;62.37
11339;BME280;5724;42.684;23.252;2024-03-08T12:50:08;94427.59;;;9.45;61.96
11339;BME280;5724;42.684;23.252;2024-03-08T12:52:34;94420.78;;;8.95;62.78
11339;BME280;5724;42.684;23.252;2024-03-08T12:55:00;94425.84;;;8.81;62.78
11339;BME280;5724;42.684;23.252;2024-03-08T12:57:29;94421.91;;;8.78;64.25
11339;BME280;5724;42.684;23.252;2024-03-08T12:59:56;94414.34;;;8.87;64.34
11339;BME280;5724;42.684;23.252;2024-03-08T13:02:21;94429.91;;;9.15;64.29
11339;BME280;5724;42.684;23.252;2024-03-08T13:04:49;94430.06;;;9.06;63.56
11339;BME280;5724;42.684;23.252;2024-03-08T13:07:24;94413.69;;;9.18;63.68
11339;BME280;5724;42.684;23.252;2024-03-08T13:09:55;94421.28;;;9.41;64.15
11339;BME280;5724;42.684;23.252;2024-03-08T13:12:25;94428.50;;;9.49;62.60
11339;BME280;5724;42.684;23.252;2024-03-08T13:14:52;94426.22;;;9.51;63.17